Time;durP1;ratioP1;P1;durP2;ratioP2;P2;SDS_P1;SDS_P2;PMS_P1;PMS_P2;Temp;Humidity;BMP_temperature;BMP_pressure;BME280_temperature;BME280_humidity;BME280_pressure;Samples;Min_cycle;Max_cycle;Signal;HPM_P1;HPM_P2
2021/08/26 00:07:00;;;;;;;7.00;4.20;;;15.40;99.90;;;;;;5039933;28;20387;-83
2021/08/26 00:09:25;;;;;;;7.10;4.93;;;15.50;99.90;;;;;;5039361;28;20513;-83
2021/08/26 00:11:54;;;;;;;9.33;4.87;;;15.30;99.90;;;;;;5039577;28;20486;-83
2021/08/26 00:14:19;;;;;;;6.97;4.90;;;15.30;99.90;;;;;;5038723;28;20153;-83
2021/08/26 00:16:45;;;;;;;11.63;5.97;;;15.40;99.90;;;;;;5039582;28;20387;-83
2021/08/26 00:19:12;;;;;;;7.30;5.03;;;15.30;99.90;;;;;;5020767;28;20185;-83
2021/08/26 00:21:40;;;;;;;7.87;5.83;;;15.30;99.90;;;;;;5038171;28;20201;-83
2021/08/26 00:24:06;;;;;;;7.30;5.67;;;15.30;99.90;;;;;;5039094;28;20494;-83
2021/08/26 00:26:33;;;;;;;6.97;4.97;;;15.30;99.90;;;;;;5039494;28;20744;-83
2021/08/26 00:28:59;;;;;;;6.13;4.10;;;15.30;99.90;;;;;;5039601;28;20445;-83
2021/08/26 00:31:25;;;;;;;5.47;4.60;;;15.40;99.90;;;;;;5039436;28;20435;-83
2021/08/26 00:33:50;;;;;;;7.07;5.23;;;15.40;99.90;;;;;;5038759;28;20383;-83
2021/08/26 00:36:16;;;;;;;4.87;4.33;;;15.40;99.90;;;;;;5038922;28;20149;-83
2021/08/26 00:38:42;;;;;;;7.80;4.70;;;15.50;99.90;;;;;;5038789;28;20224;-83
2021/08/26 00:41:07;;;;;;;6.50;5.17;;;15.50;99.90;;;;;;5038650;28;20402;-84
2021/08/26 00:43:34;;;;;;;10.53;4.90;;;15.40;99.90;;;;;;5038956;28;20157;-83
2021/08/26 00:46:00;;;;;;;9.90;5.63;;;15.40;99.90;;;;;;5038723;28;20591;-83
2021/08/26 00:48:27;;;;;;;9.70;5.40;;;15.40;99.90;;;;;;5039220;28;20439;-83
2021/08/26 00:50:55;;;;;;;9.03;5.03;;;15.50;99.90;;;;;;5038741;28;20238;-83
2021/08/26 00:53:21;;;;;;;7.43;6.67;;;15.50;99.90;;;;;;5038708;28;20450;-83
2021/08/26 00:55:47;;;;;;;5.60;5.03;;;15.70;99.90;;;;;;5039154;28;20479;-84
2021/08/26 00:58:13;;;;;;;6.80;4.17;;;15.80;99.90;;;;;;5022086;28;20431;-83
2021/08/26 01:00:43;;;;;;;7.27;5.70;;;15.90;99.90;;;;;;5041978;28;20157;-83
2021/08/26 01:03:12;;;;;;;7.27;5.30;;;16.00;99.90;;;;;;5046226;28;20224;-83
2021/08/26 01:05:55;;;;;;;4.37;3.97;;;16.10;99.90;;;;;;5046813;28;20392;-83
2021/08/26 01:08:37;;;;;;;4.90;4.00;;;16.20;99.90;;;;;;5044129;28;20459;-84
2021/08/26 01:11:04;;;;;;;8.73;4.30;;;16.10;99.90;;;;;;5037304;28;20442;-83
2021/08/26 01:13:34;;;;;;;6.70;4.73;;;16.20;99.90;;;;;;5037834;28;20733;-83
2021/08/26 01:16:04;;;;;;;4.07;3.70;;;16.20;99.90;;;;;;5038466;28;20396;-84
2021/08/26 01:18:33;;;;;;;4.60;3.63;;;16.40;99.90;;;;;;5038291;28;20474;-83
2021/08/26 01:20:58;;;;;;;8.47;3.90;;;16.40;99.90;;;;;;5038397;28;20892;-83
2021/08/26 01:23:27;;;;;;;5.20;4.07;;;16.60;99.90;;;;;;5038747;28;20450;-83
2021/08/26 01:25:53;;;;;;;8.57;4.27;;;16.70;99.90;;;;;;5038596;28;20543;-83
2021/08/26 01:28:21;;;;;;;4.80;4.30;;;16.90;99.90;;;;;;5036963;28;20478;-83
2021/08/26 01:30:46;;;;;;;5.40;4.50;;;16.70;99.90;;;;;;5037413;28;20427;-83
2021/08/26 01:33:12;;;;;;;5.27;3.77;;;16.60;99.90;;;;;;5038078;28;20404;-84
2021/08/26 01:35:37;;;;;;;5.67;4.67;;;16.70;99.90;;;;;;5038426;28;20153;-82
2021/08/26 01:38:04;;;;;;;8.13;4.87;;;16.80;99.90;;;;;;5037901;28;20157;-83
2021/08/26 01:40:33;;;;;;;5.17;4.20;;;16.90;99.90;;;;;;5038430;28;20247;-83
2021/08/26 01:43:02;;;;;;;6.37;4.00;;;16.90;99.90;;;;;;5037270;28;20442;-82
2021/08/26 01:45:28;;;;;;;7.57;4.73;;;16.90;99.90;;;;;;5038014;28;20395;-83
2021/08/26 01:47:56;;;;;;;5.30;4.47;;;17.00;99.90;;;;;;5037962;28;20450;-83
2021/08/26 01:50:21;;;;;;;4.80;3.73;;;16.90;99.90;;;;;;5037756;28;20239;-83
2021/08/26 01:52:47;;;;;;;7.00;4.10;;;16.60;99.90;;;;;;5037683;28;20400;-84
2021/08/26 01:55:13;;;;;;;8.23;5.03;;;16.80;99.90;;;;;;5037756;28;20164;-83
2021/08/26 01:57:38;;;;;;;5.93;4.30;;;16.60;99.90;;;;;;5037754;28;20219;-83
2021/08/26 02:00:07;;;;;;;7.17;4.17;;;16.70;99.90;;;;;;5037949;28;20169;-84
2021/08/26 02:02:32;;;;;;;7.97;4.83;;;16.60;99.90;;;;;;5037889;28;20176;-83
2021/08/26 02:04:58;;;;;;;5.47;4.50;;;16.70;99.90;;;;;;5037825;28;20491;-83
2021/08/26 02:07:23;;;;;;;5.20;4.00;;;16.80;99.90;;;;;;5037514;28;20464;-83
2021/08/26 02:09:49;;;;;;;5.37;4.27;;;16.80;99.90;;;;;;5037645;28;20215;-84
2021/08/26 02:12:15;;;;;;;6.10;4.00;;;16.80;99.90;;;;;;5037901;28;20555;-83
2021/08/26 02:14:40;;;;;;;6.87;4.70;;;16.60;99.90;;;;;;5036126;28;20188;-83
2021/08/26 02:17:06;;;;;;;8.97;3.77;;;16.60;99.90;;;;;;5037774;28;20162;-83
2021/08/26 02:19:32;;;;;;;5.53;3.43;;;16.80;99.90;;;;;;5037129;28;20192;-83
2021/08/26 02:21:59;;;;;;;8.17;5.37;;;16.90;99.90;;;;;;5037949;28;20168;-83
2021/08/26 02:24:24;;;;;;;5.73;4.20;;;16.90;99.90;;;;;;5037182;28;20872;-83
2021/08/26 02:26:50;;;;;;;5.77;4.40;;;17.00;99.90;;;;;;5037771;28;20387;-83
2021/08/26 02:29:17;;;;;;;9.63;5.73;;;17.00;99.90;;;;;;5040611;28;20219;-82
2021/08/26 02:31:43;;;;;;;9.30;4.70;;;17.00;99.90;;;;;;5040726;28;20200;-83
2021/08/26 02:34:08;;;;;;;5.20;4.60;;;17.00;99.90;;;;;;5046376;28;20391;-83
2021/08/26 02:36:34;;;;;;;5.80;4.23;;;16.90;99.90;;;;;;5042675;28;20189;-83
2021/08/26 02:38:59;;;;;;;8.80;5.43;;;16.90;99.90;;;;;;5037044;28;20220;-84
2021/08/26 02:41:25;;;;;;;6.40;4.63;;;16.90;99.90;;;;;;5036967;28;20168;-83
2021/08/26 02:43:50;;;;;;;8.00;4.97;;;16.90;99.90;;;;;;5037133;28;20168;-83
2021/08/26 02:46:16;;;;;;;8.13;4.30;;;16.90;99.90;;;;;;5037260;28;20507;-82
2021/08/26 02:48:42;;;;;;;4.90;4.50;;;16.90;99.90;;;;;;5037120;28;20173;-83
2021/08/26 02:51:07;;;;;;;4.43;4.00;;;16.90;99.90;;;;;;5037133;28;20683;-83
2021/08/26 02:53:33;;;;;;;9.10;4.47;;;16.90;99.90;;;;;;5036963;28;20168;-83
2021/08/26 02:55:59;;;;;;;5.80;4.57;;;16.90;99.90;;;;;;5036283;28;20163;-83
2021/08/26 02:58:25;;;;;;;6.77;4.53;;;16.90;99.90;;;;;;5037475;28;20387;-84
2021/08/26 03:00:50;;;;;;;7.00;4.77;;;16.90;99.90;;;;;;5038188;28;20512;-83
2021/08/26 03:03:16;;;;;;;7.30;5.00;;;16.90;99.90;;;;;;5039754;28;20165;-83
2021/08/26 03:05:41;;;;;;;10.13;4.40;;;17.00;99.90;;;;;;5038212;28;20176;-83
2021/08/26 03:08:07;;;;;;;9.90;5.90;;;17.00;99.90;;;;;;5039855;28;20204;-84
2021/08/26 03:10:33;;;;;;;9.70;5.67;;;17.00;99.90;;;;;;5040422;28;20192;-84
2021/08/26 03:12:58;;;;;;;8.37;4.60;;;16.90;99.90;;;;;;5039858;28;20519;-83
2021/08/26 03:15:24;;;;;;;10.57;5.50;;;16.80;99.90;;;;;;5041278;28;20523;-82
2021/08/26 03:17:50;;;;;;;9.27;5.63;;;16.80;99.90;;;;;;5045893;28;20620;-84
2021/08/26 03:20:16;;;;;;;5.33;4.43;;;16.70;99.90;;;;;;5036998;28;20165;-84
2021/08/26 03:22:41;;;;;;;6.17;5.20;;;16.50;99.90;;;;;;5038130;28;20279;-83
2021/08/26 03:25:07;;;;;;;6.80;5.47;;;16.50;99.90;;;;;;5038768;28;20169;-83
2021/08/26 03:27:42;;;;;;;9.63;6.67;;;16.40;99.90;;;;;;5042736;28;20590;-83
2021/08/26 03:30:08;;;;;;;7.23;5.20;;;16.30;99.90;;;;;;5039124;28;20450;-83
2021/08/26 03:32:35;;;;;;;7.17;5.03;;;16.20;99.90;;;;;;5036704;28;20427;-83
2021/08/26 03:35:00;;;;;;;7.40;6.30;;;16.10;99.90;;;;;;5036850;28;20392;-83
2021/08/26 03:37:26;;;;;;;7.77;5.60;;;16.20;99.90;;;;;;5035481;28;20922;-83
2021/08/26 03:39:51;;;;;;;8.87;6.40;;;16.10;99.90;;;;;;5036376;28;20278;-83
2021/08/26 03:42:17;;;;;;;7.73;5.60;;;16.20;99.90;;;;;;5036279;28;20164;-83
2021/08/26 03:44:43;;;;;;;8.13;6.70;;;16.10;99.90;;;;;;5036670;28;20169;-83
2021/08/26 03:47:09;;;;;;;9.33;5.47;;;16.00;99.90;;;;;;5037617;28;20172;-83
2021/08/26 03:49:35;;;;;;;11.50;5.87;;;16.00;99.90;;;;;;5035678;28;20164;-84
2021/08/26 03:52:02;;;;;;;8.30;6.20;;;16.00;99.90;;;;;;5036185;28;20406;-83
2021/08/26 03:54:28;;;;;;;6.30;4.77;;;16.00;99.90;;;;;;5038954;28;20165;-83
2021/08/26 03:56:53;;;;;;;5.27;4.80;;;15.90;99.90;;;;;;5040507;28;20447;-83
2021/08/26 03:59:19;;;;;;;11.17;5.70;;;16.00;99.90;;;;;;5041641;28;20161;-83
2021/08/26 04:01:44;;;;;;;6.40;5.37;;;15.90;99.90;;;;;;5043530;28;20165;-84
2021/08/26 04:04:10;;;;;;;7.87;6.63;;;16.00;99.90;;;;;;5042496;28;20172;-84
2021/08/26 04:06:35;;;;;;;10.33;6.20;;;16.00;99.90;;;;;;5040325;28;20161;-84
2021/08/26 04:09:01;;;;;;;8.17;6.87;;;16.00;99.90;;;;;;5040521;28;20644;-83
2021/08/26 04:11:27;;;;;;;7.30;5.80;;;16.00;99.90;;;;;;5040014;28;20235;-83
2021/08/26 04:13:53;;;;;;;7.40;5.23;;;15.90;99.90;;;;;;5040351;28;20602;-83
2021/08/26 04:16:18;;;;;;;8.80;7.33;;;16.00;99.90;;;;;;5039798;28;20491;-83
2021/08/26 04:18:44;;;;;;;9.27;6.30;;;16.00;99.90;;;;;;5039804;28;20476;-83
2021/08/26 04:21:09;;;;;;;8.30;5.03;;;15.90;99.90;;;;;;5039818;28;20215;-83
2021/08/26 04:23:35;;;;;;;8.10;6.00;;;15.90;99.90;;;;;;5039454;28;20168;-83
2021/08/26 04:26:00;;;;;;;9.97;6.13;;;15.90;99.90;;;;;;5039392;28;20168;-83
2021/08/26 04:28:26;;;;;;;5.80;5.27;;;15.90;99.90;;;;;;5039360;28;20164;-83
2021/08/26 04:30:52;;;;;;;7.67;6.30;;;15.90;99.90;;;;;;5039736;28;20197;-82
2021/08/26 04:33:17;;;;;;;13.00;7.30;;;15.90;99.90;;;;;;5039499;28;20183;-83
2021/08/26 04:35:42;;;;;;;11.47;6.80;;;15.90;99.90;;;;;;5039294;28;20506;-84
2021/08/26 04:38:09;;;;;;;9.30;6.70;;;15.90;99.90;;;;;;5036876;28;20164;-84
2021/08/26 04:40:35;;;;;;;6.57;5.90;;;15.90;99.90;;;;;;5002533;28;20180;-84
2021/08/26 04:43:01;;;;;;;9.63;6.83;;;16.00;99.90;;;;;;5019647;28;20502;-83
2021/08/26 04:45:26;;;;;;;8.07;6.67;;;16.00;99.90;;;;;;5019673;28;20392;-84
2021/08/26 04:47:52;;;;;;;10.30;7.20;;;15.90;99.90;;;;;;5019415;28;20169;-84
2021/08/26 04:50:17;;;;;;;9.13;7.80;;;15.90;99.90;;;;;;5020388;28;20247;-83
2021/08/26 04:52:43;;;;;;;9.00;7.63;;;15.90;99.90;;;;;;5001717;28;20502;-83
2021/08/26 04:55:09;;;;;;;11.97;6.93;;;15.90;99.90;;;;;;5019436;28;20192;-83
2021/08/26 04:57:34;;;;;;;8.47;7.70;;;15.70;99.90;;;;;;5019797;28;20170;-83
2021/08/26 05:00:00;;;;;;;9.77;7.27;;;15.50;99.90;;;;;;5019675;28;20440;-83
2021/08/26 05:02:25;;;;;;;8.77;7.90;;;15.50;99.90;;;;;;5003043;28;20591;-83
2021/08/26 05:04:51;;;;;;;10.60;8.00;;;15.60;99.90;;;;;;5020550;28;20162;-83
2021/08/26 05:07:16;;;;;;;9.70;8.43;;;15.60;99.90;;;;;;5020328;28;20566;-83
2021/08/26 05:09:42;;;;;;;6.97;5.90;;;15.60;99.90;;;;;;5019627;28;20602;-83
2021/08/26 05:12:08;;;;;;;7.43;6.47;;;15.60;99.90;;;;;;5019763;28;20208;-83
2021/08/26 05:14:34;;;;;;;8.37;6.93;;;15.70;99.90;;;;;;5020245;28;20567;-83
2021/08/26 05:17:00;;;;;;;7.70;6.97;;;15.80;99.90;;;;;;5024922;28;20396;-81
2021/08/26 05:19:26;;;;;;;8.17;5.70;;;15.80;99.90;;;;;;5035196;28;20453;-81
2021/08/26 05:21:52;;;;;;;7.90;5.83;;;15.80;99.90;;;;;;5036078;28;20180;-81
2021/08/26 05:24:17;;;;;;;8.63;6.67;;;15.90;99.90;;;;;;5036536;28;20196;-80
2021/08/26 05:26:43;;;;;;;7.07;6.37;;;15.90;99.90;;;;;;5046435;28;20192;-82
2021/08/26 05:29:09;;;;;;;9.50;6.90;;;15.90;99.90;;;;;;5055697;28;20172;-81
2021/08/26 05:31:34;;;;;;;8.13;7.33;;;15.80;99.90;;;;;;5056247;28;20503;-81
2021/08/26 05:34:00;;;;;;;6.50;5.87;;;15.80;99.90;;;;;;5056286;28;20164;-80
2021/08/26 05:36:25;;;;;;;8.50;5.83;;;15.80;99.90;;;;;;5055699;28;20190;-80
2021/08/26 05:38:51;;;;;;;9.63;6.27;;;15.90;99.90;;;;;;5055027;28;20243;-83
2021/08/26 05:41:16;;;;;;;7.43;6.50;;;15.90;99.90;;;;;;5055373;28;20211;-80
2021/08/26 05:43:42;;;;;;;9.10;5.70;;;16.00;99.90;;;;;;5055234;28;20165;-81
2021/08/26 05:46:07;;;;;;;6.90;6.00;;;16.00;99.90;;;;;;5054985;28;20697;-80
2021/08/26 05:48:33;;;;;;;7.93;7.07;;;16.00;99.90;;;;;;5037671;28;20177;-81
2021/08/26 05:50:59;;;;;;;7.00;6.40;;;16.10;99.90;;;;;;5037828;28;20200;-80
2021/08/26 05:53:24;;;;;;;6.47;5.43;;;16.20;99.90;;;;;;5055035;28;20443;-80
2021/08/26 05:55:50;;;;;;;9.87;6.40;;;16.10;99.90;;;;;;5021588;28;20240;-81
2021/08/26 05:58:16;;;;;;;9.50;5.30;;;16.10;99.90;;;;;;5053943;28;20172;-81
2021/08/26 06:00:42;;;;;;;6.40;4.93;;;16.20;99.90;;;;;;5055233;28;20173;-80
2021/08/26 06:03:07;;;;;;;6.30;5.30;;;16.30;99.90;;;;;;5055484;28;20896;-80
2021/08/26 06:05:33;;;;;;;6.80;6.00;;;16.40;99.90;;;;;;5045497;28;20239;-82
2021/08/26 06:07:59;;;;;;;5.40;4.90;;;16.40;99.90;;;;;;5037244;28;20293;-83
2021/08/26 06:10:24;;;;;;;6.70;5.50;;;16.40;99.90;;;;;;5037244;28;20248;-82
2021/08/26 06:12:50;;;;;;;5.17;4.70;;;16.50;99.90;;;;;;5038158;28;20165;-82
2021/08/26 06:15:15;;;;;;;5.27;4.67;;;16.50;99.90;;;;;;5036662;28;20220;-83
2021/08/26 06:17:41;;;;;;;5.53;4.33;;;16.50;99.90;;;;;;5018597;28;20618;-83
2021/08/26 06:20:09;;;;;;;5.20;4.70;;;16.40;99.90;;;;;;5037671;28;20169;-83
2021/08/26 06:22:36;;;;;;;4.97;4.57;;;16.40;99.90;;;;;;5020076;28;20226;-83
2021/08/26 06:25:02;;;;;;;6.53;5.70;;;16.30;99.90;;;;;;5037546;28;20446;-83
2021/08/26 06:27:31;;;;;;;7.87;6.83;;;16.30;99.90;;;;;;5038565;28;20434;-83
2021/08/26 06:30:00;;;;;;;6.17;5.57;;;16.30;99.90;;;;;;4984910;28;20436;-82
2021/08/26 06:32:26;;;;;;;7.67;5.90;;;16.30;99.90;;;;;;5037754;28;20423;-80
2021/08/26 06:34:51;;;;;;;5.53;4.97;;;16.30;99.90;;;;;;5044467;28;20192;-82
2021/08/26 06:37:17;;;;;;;6.43;5.77;;;16.30;99.90;;;;;;5044545;28;20423;-82
2021/08/26 06:39:43;;;;;;;16.53;6.40;;;16.30;99.90;;;;;;5045822;28;20292;-83
2021/08/26 06:42:08;;;;;;;8.20;6.73;;;16.20;99.90;;;;;;5021126;28;20266;-83
2021/08/26 06:44:34;;;;;;;5.60;4.67;;;16.20;99.90;;;;;;5036574;28;20771;-83
2021/08/26 06:46:59;;;;;;;7.00;5.17;;;16.20;99.90;;;;;;5036580;28;20169;-82
2021/08/26 06:49:25;;;;;;;6.90;5.40;;;16.10;99.90;;;;;;5037467;28;22252;-82
2021/08/26 06:51:50;;;;;;;6.83;6.20;;;16.10;99.90;;;;;;5037153;28;20832;-83
2021/08/26 06:54:16;;;;;;;5.63;5.00;;;16.20;99.90;;;;;;5019823;28;20177;-83
2021/08/26 06:56:42;;;;;;;5.27;4.80;;;16.30;99.90;;;;;;5019087;28;20196;-83
2021/08/26 06:59:07;;;;;;;6.03;4.87;;;16.30;99.90;;;;;;5037330;28;20168;-82
2021/08/26 07:01:34;;;;;;;5.10;4.40;;;16.40;99.90;;;;;;5036936;28;20183;-81
2021/08/26 07:04:00;;;;;;;5.90;5.13;;;16.40;99.90;;;;;;5035841;28;20195;-81
2021/08/26 07:06:26;;;;;;;5.53;5.03;;;16.40;99.90;;;;;;5036985;28;20396;-82
2021/08/26 07:08:52;;;;;;;5.43;4.90;;;16.50;99.90;;;;;;5036641;28;20222;-82
2021/08/26 07:11:17;;;;;;;4.40;4.00;;;16.60;99.90;;;;;;5037156;28;20891;-82
2021/08/26 07:13:46;;;;;;;4.73;3.93;;;16.60;99.90;;;;;;5037222;28;20904;-82
2021/08/26 07:16:12;;;;;;;4.43;4.00;;;16.70;99.90;;;;;;5037093;28;20492;-83
2021/08/26 07:18:38;;;;;;;5.10;4.20;;;16.70;99.90;;;;;;5033765;28;20170;-83
2021/08/26 07:21:04;;;;;;;4.57;3.73;;;16.80;99.90;;;;;;5035920;28;20169;-82
2021/08/26 07:23:30;;;;;;;5.57;4.73;;;16.90;99.90;;;;;;5036258;28;20427;-82
2021/08/26 07:25:55;;;;;;;4.70;3.90;;;16.80;99.90;;;;;;5028409;28;20635;-82
2021/08/26 07:28:21;;;;;;;4.00;3.70;;;16.90;99.90;;;;;;5020478;28;20184;-83
2021/08/26 07:30:46;;;;;;;4.33;3.73;;;17.00;99.90;;;;;;5039909;28;20535;-83
2021/08/26 07:33:12;;;;;;;3.90;3.60;;;17.30;99.90;;;;;;5040486;28;20173;-83
2021/08/26 07:35:37;;;;;;;7.80;3.97;;;17.40;99.90;;;;;;5038739;28;20180;-83
2021/08/26 07:38:04;;;;;;;5.00;3.93;;;17.40;99.90;;;;;;5019904;28;20173;-83
2021/08/26 07:40:30;;;;;;;4.30;3.03;;;17.00;99.90;;;;;;5031073;28;20222;-83
2021/08/26 07:42:55;;;;;;;3.90;3.50;;;17.30;99.90;;;;;;5037312;28;20428;-83
2021/08/26 07:45:21;;;;;;;4.03;3.67;;;17.40;99.90;;;;;;5033036;28;20177;-82
2021/08/26 07:47:46;;;;;;;3.97;2.73;;;17.50;99.90;;;;;;5029865;28;20173;-83
2021/08/26 07:50:13;;;;;;;5.30;3.50;;;17.40;99.90;;;;;;5032421;28;20216;-84
2021/08/26 07:52:38;;;;;;;3.93;3.00;;;17.40;99.90;;;;;;5037994;28;20272;-84
2021/08/26 07:55:05;;;;;;;3.33;2.90;;;17.50;99.90;;;;;;5038084;28;20771;-84
2021/08/26 07:57:31;;;;;;;4.07;3.03;;;17.50;99.90;;;;;;5041117;28;20716;-83
2021/08/26 07:59:57;;;;;;;5.07;3.00;;;17.50;99.90;;;;;;5007124;28;20423;-84
2021/08/26 08:02:22;;;;;;;8.17;3.17;;;17.20;99.90;;;;;;5041781;28;20423;-83
2021/08/26 08:04:48;;;;;;;2.80;2.60;;;17.60;99.90;;;;;;5024622;28;20223;-84
2021/08/26 08:07:14;;;;;;;4.23;3.83;;;18.00;99.90;;;;;;5045717;28;20176;-83
2021/08/26 08:09:39;;;;;;;7.73;3.40;;;18.20;99.90;;;;;;5040479;28;20196;-83
2021/08/26 08:12:05;;;;;;;2.73;2.17;;;18.30;99.90;;;;;;5034602;28;20634;-83
2021/08/26 08:14:31;;;;;;;2.37;2.20;;;18.20;99.90;;;;;;5034582;28;20183;-83
2021/08/26 08:16:57;;;;;;;3.77;2.53;;;18.20;99.90;;;;;;5035229;28;20222;-83
2021/08/26 08:19:24;;;;;;;3.47;3.07;;;18.20;99.90;;;;;;5021062;28;20181;-83
2021/08/26 08:21:49;;;;;;;2.60;2.40;;;18.30;99.90;;;;;;5027291;28;20430;-83
2021/08/26 08:24:15;;;;;;;2.60;2.40;;;18.20;99.90;;;;;;5038445;28;20424;-83
2021/08/26 08:26:41;;;;;;;3.20;2.50;;;18.20;99.90;;;;;;5039338;28;20180;-84
2021/08/26 08:29:06;;;;;;;3.53;2.83;;;18.30;99.90;;;;;;5021050;28;20172;-83
2021/08/26 08:31:32;;;;;;;5.97;2.97;;;18.40;99.90;;;;;;5039962;28;20606;-83
2021/08/26 08:33:59;;;;;;;2.70;2.50;;;18.40;99.90;;;;;;5040567;28;20169;-84
2021/08/26 08:36:26;;;;;;;3.00;2.80;;;18.30;99.90;;;;;;5040919;28;20224;-83
2021/08/26 08:38:52;;;;;;;3.87;2.30;;;18.30;99.90;;;;;;5039662;28;20463;-83
2021/08/26 08:41:19;;;;;;;7.47;3.40;;;18.40;99.90;;;;;;5021191;28;20469;-83
2021/08/26 08:43:45;;;;;;;4.27;2.50;;;18.50;99.90;;;;;;5039176;28;20238;-83
2021/08/26 08:46:10;;;;;;;2.33;2.13;;;18.60;99.90;;;;;;5040285;28;20392;-83
2021/08/26 08:48:40;;;;;;;4.60;2.10;;;18.70;99.90;;;;;;5037535;28;20420;-84
2021/08/26 08:51:07;;;;;;;3.50;2.10;;;18.80;99.90;;;;;;5039109;28;20208;-83
2021/08/26 08:53:32;;;;;;;2.77;2.37;;;18.80;99.90;;;;;;5039774;28;20423;-83
2021/08/26 08:55:58;;;;;;;3.20;2.37;;;18.70;99.90;;;;;;5009071;28;20427;-83
2021/08/26 08:58:23;;;;;;;5.67;2.93;;;18.60;99.90;;;;;;5011171;28;20173;-83
2021/08/26 09:00:49;;;;;;;2.97;2.40;;;18.50;99.90;;;;;;5037387;28;20680;-83
2021/08/26 09:03:14;;;;;;;3.60;2.53;;;18.50;99.90;;;;;;5034397;28;20203;-83
2021/08/26 09:05:53;;;;;;;5.70;2.27;;;18.70;99.90;;;;;;5039544;28;20181;-84
2021/08/26 09:08:19;;;;;;;6.43;2.13;;;18.80;99.90;;;;;;5021239;28;20280;-83
2021/08/26 09:10:44;;;;;;;2.80;2.30;;;18.40;99.90;;;;;;5020652;28;20452;-83
2021/08/26 09:13:10;;;;;;;2.80;2.40;;;18.60;99.90;;;;;;5022268;28;20176;-83
2021/08/26 09:15:35;;;;;;;4.20;2.50;;;18.60;99.90;;;;;;5039102;28;20492;-83
2021/08/26 09:18:14;;;;;;;4.57;2.20;;;18.70;99.90;;;;;;5020269;28;20654;-83
2021/08/26 09:20:54;;;;;;;2.30;2.10;;;18.60;99.90;;;;;;5020082;28;20207;-82
2021/08/26 09:23:22;;;;;;;3.67;1.90;;;19.00;99.90;;;;;;5020423;28;20418;-84
2021/08/26 09:25:49;;;;;;;2.77;2.27;;;19.40;99.90;;;;;;5026291;28;20522;-84
2021/08/26 09:28:26;;;;;;;3.13;2.10;;;19.70;99.90;;;;;;5038826;28;20447;-83
2021/08/26 09:31:14;;;;;;;2.43;2.03;;;20.00;99.90;;;;;;5037883;28;20477;-84
2021/08/26 09:34:09;;;;;;;3.73;2.40;;;20.00;99.90;;;;;;5033818;28;20478;-82
2021/08/26 09:36:51;;;;;;;2.90;2.13;;;19.80;99.90;;;;;;5035483;28;20810;-84
2021/08/26 09:39:22;;;;;;;2.67;2.20;;;19.50;99.90;;;;;;5022216;28;20455;-84
2021/08/26 09:41:53;;;;;;;2.50;2.17;;;19.50;99.90;;;;;;5034654;28;20461;-84
2021/08/26 09:44:28;;;;;;;2.10;1.90;;;19.40;99.90;;;;;;5038624;28;20423;-83
2021/08/26 09:46:56;;;;;;;2.50;1.87;;;19.40;99.90;;;;;;5026442;28;20765;-83
2021/08/26 09:49:24;;;;;;;1.77;1.67;;;19.40;99.90;;;;;;5017862;28;20447;-83
2021/08/26 09:52:13;;;;;;;3.10;2.10;;;19.40;99.90;;;;;;5024955;28;20463;-83
2021/08/26 09:54:41;;;;;;;2.47;2.30;;;19.40;99.90;;;;;;5019605;28;20444;-83
2021/08/26 09:57:23;;;;;;;2.00;1.80;;;19.70;99.90;;;;;;5017391;28;20420;-84
2021/08/26 09:59:54;;;;;;;2.90;2.33;;;20.10;99.90;;;;;;5020673;28;20434;-84
2021/08/26 10:02:21;;;;;;;2.80;2.03;;;20.00;99.90;;;;;;5000909;28;20429;-83
2021/08/26 10:04:48;;;;;;;3.70;2.20;;;19.90;99.90;;;;;;5021287;28;20387;-82
2021/08/26 10:07:16;;;;;;;6.47;3.03;;;19.70;99.90;;;;;;5017352;28;20423;-83
2021/08/26 10:09:43;;;;;;;3.50;1.90;;;19.50;99.90;;;;;;5042263;28;20447;-84
2021/08/26 10:12:12;;;;;;;4.00;1.87;;;19.20;99.90;;;;;;5034810;28;20444;-84
2021/08/26 10:14:40;;;;;;;2.13;1.90;;;19.30;99.90;;;;;;5011190;28;20403;-84
2021/08/26 10:17:06;;;;;;;3.10;1.77;;;19.40;99.90;;;;;;5019879;28;20447;-84
2021/08/26 10:19:32;;;;;;;1.87;1.77;;;19.30;99.90;;;;;;5027440;28;20427;-84
2021/08/26 10:21:59;;;;;;;2.10;1.80;;;19.40;99.90;;;;;;5042513;28;20501;-84
2021/08/26 10:24:25;;;;;;;4.50;2.07;;;19.90;99.90;;;;;;5038391;28;20411;-84
2021/08/26 10:26:56;;;;;;;2.50;1.80;;;20.30;99.90;;;;;;5039121;28;20612;-83
2021/08/26 10:29:23;;;;;;;2.43;2.23;;;20.60;99.90;;;;;;5014909;28;20895;-83
2021/08/26 10:31:58;;;;;;;1.93;1.70;;;20.90;99.90;;;;;;4995685;28;20455;-84
2021/08/26 10:34:27;;;;;;;4.20;2.40;;;21.20;99.90;;;;;;5010198;28;20461;-84
2021/08/26 10:37:16;;;;;;;4.73;2.80;;;21.60;99.90;;;;;;5037443;28;20450;-84
2021/08/26 10:39:42;;;;;;;2.13;1.93;;;21.70;99.90;;;;;;5040908;28;20490;-83
2021/08/26 10:42:32;;;;;;;3.70;2.30;;;21.20;99.90;;;;;;5048888;28;20732;-84
2021/08/26 10:45:09;;;;;;;5.03;2.70;;;20.90;99.90;;;;;;5058452;28;20537;-83
2021/08/26 10:48:08;;;;;;;2.73;2.30;;;20.60;99.90;;;;;;5042119;28;20466;-84
2021/08/26 10:50:39;;;;;;;2.23;2.03;;;20.50;99.90;;;;;;5029332;28;20443;-84
2021/08/26 10:53:27;;;;;;;3.03;2.20;;;20.40;99.90;;;;;;5057321;28;20507;-84
2021/08/26 10:55:56;;;;;;;3.47;2.40;;;20.50;99.90;;;;;;5056339;28;20410;-83
2021/08/26 10:58:42;;;;;;;2.27;1.80;;;20.60;99.90;;;;;;5055170;28;20493;-83
2021/08/26 11:01:10;;;;;;;2.13;1.93;;;20.50;99.90;;;;;;5056085;28;20817;-83
2021/08/26 11:03:50;;;;;;;2.10;1.90;;;20.40;99.90;;;;;;5059170;28;20849;-84
2021/08/26 11:06:34;;;;;;;2.60;2.07;;;20.10;99.90;;;;;;5061539;28;20403;-85
2021/08/26 11:09:22;;;;;;;2.57;2.30;;;20.00;99.90;;;;;;5061556;28;20806;-84
2021/08/26 11:11:49;;;;;;;2.07;1.87;;;20.00;99.90;;;;;;5072185;28;20464;-85
2021/08/26 11:14:28;;;;;;;3.10;1.90;;;20.00;99.90;;;;;;5063989;28;20395;-84
2021/08/26 11:16:56;;;;;;;2.37;2.17;;;20.00;99.90;;;;;;5062353;28;20426;-83
2021/08/26 11:19:28;;;;;;;3.30;2.57;;;20.10;99.90;;;;;;5063685;28;20417;-83
2021/08/26 11:21:59;;;;;;;3.23;2.37;;;21.00;99.90;;;;;;5044956;28;20441;-84
2021/08/26 11:24:52;;;;;;;3.67;2.40;;;21.80;99.90;;;;;;5062641;28;20403;-85
2021/08/26 11:27:23;;;;;;;2.70;2.07;;;22.90;99.90;;;;;;5063350;28;20394;-85
2021/08/26 11:29:50;;;;;;;4.83;2.60;;;23.80;99.90;;;;;;5062338;28;20410;-84
2021/08/26 11:32:18;;;;;;;6.20;2.30;;;24.30;99.90;;;;;;5062941;28;20382;-84
2021/08/26 11:34:48;;;;;;;2.90;2.47;;;24.70;99.90;;;;;;5060875;28;20437;-84
2021/08/26 11:37:32;;;;;;;2.47;2.27;;;25.30;99.90;;;;;;5061500;28;20492;-84
2021/08/26 11:40:03;;;;;;;3.47;1.67;;;25.80;99.90;;;;;;5010242;28;20552;-84
2021/08/26 11:42:38;;;;;;;2.23;2.03;;;26.10;99.90;;;;;;5060401;28;20505;-84
2021/08/26 11:45:26;;;;;;;2.33;2.00;;;26.40;99.90;;;;;;5043468;28;20924;-85
2021/08/26 11:47:58;;;;;;;4.37;2.13;;;26.20;99.90;;;;;;5040807;28;20469;-83
2021/08/26 11:50:27;;;;;;;2.53;1.90;;;26.10;99.80;;;;;;5008718;28;20934;-84
2021/08/26 11:52:56;;;;;;;2.20;1.83;;;26.50;99.90;;;;;;5050430;28;20887;-85
2021/08/26 11:55:24;;;;;;;2.43;1.70;;;26.80;99.90;;;;;;5045569;28;20432;-84
2021/08/26 11:57:54;;;;;;;2.33;2.07;;;27.00;99.20;;;;;;5050504;28;20574;-84
2021/08/26 12:00:20;;;;;;;2.50;2.30;;;27.20;97.10;;;;;;5055232;28;20428;-84
2021/08/26 12:02:54;;;;;;;7.17;2.13;;;27.60;96.10;;;;;;5042668;28;20481;-84
2021/08/26 12:05:20;;;;;;;2.00;1.77;;;27.70;94.80;;;;;;5022912;28;20186;-85
2021/08/26 12:07:48;;;;;;;3.53;2.20;;;27.90;93.80;;;;;;5052229;28;20419;-84
2021/08/26 12:10:29;;;;;;;2.28;2.08;;;28.80;93.10;;;;;;5041268;28;20238;-83
2021/08/26 12:12:59;;;;;;;2.17;1.92;;;28.60;91.60;;;;;;5058578;28;20245;-84
2021/08/26 12:15:31;;;;;;;3.30;2.75;;;28.70;91.10;;;;;;5051713;28;20171;-85
2021/08/26 12:18:01;;;;;;;2.65;1.92;;;28.50;89.80;;;;;;5049827;28;20172;-85
2021/08/26 12:20:28;;;;;;;2.63;2.35;;;28.20;90.00;;;;;;5048778;28;20204;-84
2021/08/26 12:22:56;;;;;;;3.55;2.10;;;28.60;90.80;;;;;;5055805;28;20194;-85
2021/08/26 12:25:27;;;;;;;4.40;1.77;;;28.70;88.60;;;;;;5065120;28;20282;-84
2021/08/26 12:27:57;;;;;;;5.22;2.00;;;28.70;87.60;;;;;;5053737;28;20176;-84
2021/08/26 12:30:27;;;;;;;3.05;2.20;;;28.30;86.60;;;;;;5051445;28;20199;-85
2021/08/26 12:33:03;;;;;;;4.22;1.98;;;28.10;85.20;;;;;;5047786;28;20172;-85
2021/08/26 12:35:29;;;;;;;2.40;1.88;;;27.30;87.00;;;;;;5055386;28;20175;-83
2021/08/26 12:38:00;;;;;;;2.00;1.90;;;27.10;88.00;;;;;;5042686;28;20187;-83
2021/08/26 12:40:45;;;;;;;3.97;1.67;;;26.10;86.50;;;;;;5027454;28;20224;-84
2021/08/26 12:43:11;;;;;;;2.10;1.90;;;26.10;86.60;;;;;;5023501;28;20432;-83
2021/08/26 12:45:37;;;;;;;5.33;2.10;;;26.60;88.90;;;;;;5029239;28;20473;-84
2021/08/26 12:48:24;;;;;;;1.80;1.70;;;27.10;89.30;;;;;;5037558;28;20203;-83
2021/08/26 12:51:10;;;;;;;5.00;2.30;;;27.70;86.50;;;;;;5040028;28;20446;-82
2021/08/26 12:53:37;;;;;;;1.80;1.60;;;28.20;87.70;;;;;;5021562;28;20777;-84
2021/08/26 12:56:09;;;;;;;2.67;1.63;;;28.30;84.10;;;;;;5038777;28;20176;-84